createdAt,value
2023-05-22T00:07:19.064Z,101366.91
2023-05-22T00:17:24.618Z,101370.72
2023-05-22T00:27:29.065Z,101371.63
2023-05-22T00:37:35.050Z,101372.66
2023-05-22T00:47:39.685Z,101373.97
2023-05-22T00:57:48.031Z,101372.25
2023-05-22T01:07:53.520Z,101366.63
2023-05-22T01:18:11.362Z,101366.22
2023-05-22T01:28:56.477Z,101364.09
2023-05-22T01:39:06.817Z,101363.81
2023-05-22T01:49:12.771Z,101369.66
2023-05-22T01:59:26.792Z,101375.19
2023-05-22T02:09:32.250Z,101372.84
2023-05-22T02:19:37.956Z,101374.91
2023-05-22T02:29:43.704Z,101371.53
2023-05-22T02:39:49.620Z,101377.16
2023-05-22T02:49:58.171Z,101382.44
2023-05-22T03:00:08.093Z,101388.50
2023-05-22T03:10:14.462Z,101394.28
2023-05-22T03:20:20.413Z,101399.41
2023-05-22T03:30:23.777Z,101404.44
2023-05-22T03:40:35.663Z,101404.00
2023-05-22T03:50:43.787Z,101409.03
2023-05-22T04:00:54.482Z,101415.31
2023-05-22T04:11:06.372Z,101417.44
2023-05-22T04:21:13.866Z,101417.78
2023-05-22T04:31:19.686Z,101420.63
2023-05-22T04:41:26.983Z,101423.72
2023-05-22T04:51:31.438Z,101429.19
2023-05-22T05:01:38.533Z,101430.59
2023-05-22T05:11:45.761Z,101433.00
2023-05-22T05:21:51.642Z,101436.94
2023-05-22T05:31:54.661Z,101439.00
2023-05-22T05:42:03.630Z,101443.41
2023-05-22T05:52:10.089Z,101447.19
2023-05-22T06:02:17.624Z,101447.31
2023-05-22T06:12:26.868Z,101447.78
2023-05-22T06:22:38.384Z,101449.00
2023-05-22T06:32:42.572Z,101452.22
2023-05-22T06:42:51.763Z,101455.69
2023-05-22T06:53:03.105Z,101458.38
2023-05-22T07:03:07.908Z,101455.75
2023-05-22T07:13:14.159Z,101454.88
2023-05-22T07:23:26.105Z,101457.00
2023-05-22T07:33:30.458Z,101458.50
2023-05-22T07:43:35.382Z,101458.50
2023-05-22T07:53:38.806Z,101460.28
2023-05-22T08:03:44.519Z,101461.72
2023-05-22T08:13:49.374Z,101457.94
2023-05-22T08:23:57.201Z,101459.56
2023-05-22T08:34:06.030Z,101460.66
2023-05-22T08:44:15.473Z,101461.47
2023-05-22T08:54:23.012Z,101460.78
2023-05-22T09:04:29.239Z,101457.41
2023-05-22T09:14:40.089Z,101458.28
2023-05-22T09:24:49.753Z,101458.59
2023-05-22T09:34:54.090Z,101456.56
2023-05-22T09:45:04.049Z,101454.59
2023-05-22T09:55:12.734Z,101446.13
2023-05-22T10:05:28.140Z,101445.41
2023-05-22T10:15:32.542Z,101444.47
2023-05-22T10:25:39.948Z,101440.84
2023-05-22T10:35:54.993Z,101435.44
2023-05-22T10:46:05.906Z,101429.16
2023-05-22T10:56:12.408Z,101424.13
2023-05-22T11:17:13.534Z,101363.38
2023-05-22T11:27:19.435Z,101363.47
2023-05-22T11:37:27.406Z,101356.22
2023-05-22T11:47:32.758Z,101358.06
2023-05-22T11:57:38.982Z,101353.25
2023-05-22T12:07:44.011Z,101353.16
2023-05-22T12:17:49.558Z,101351.72
2023-05-22T12:27:54.029Z,101348.50
2023-05-22T12:38:00.186Z,101346.72
2023-05-22T12:48:06.596Z,101344.72
2023-05-22T12:58:12.151Z,101342.84
2023-05-22T13:08:17.980Z,101341.44
2023-05-22T13:18:25.116Z,101337.41
2023-05-22T13:28:28.844Z,101337.03
2023-05-22T13:38:37.668Z,101335.50
2023-05-22T13:48:41.057Z,101331.06
2023-05-22T13:59:00.019Z,101327.25
2023-05-22T14:09:09.271Z,101325.97
2023-05-22T14:19:38.244Z,101322.97
2023-05-22T14:29:42.123Z,101316.41
2023-05-22T14:39:48.106Z,101314.22
2023-05-22T14:49:52.582Z,101310.41
2023-05-22T15:00:00.071Z,101306.50
2023-05-22T15:10:08.610Z,101300.78
2023-05-22T15:20:17.079Z,101295.34
2023-05-22T15:30:25.862Z,101288.03
2023-05-22T15:40:49.308Z,101282.91
2023-05-22T15:50:53.725Z,101271.13
2023-05-22T16:01:09.461Z,101265.53
2023-05-22T16:11:16.812Z,101265.47
2023-05-22T16:21:23.156Z,101264.19
2023-05-22T16:31:27.356Z,101263.06
2023-05-22T16:41:41.136Z,101258.97
2023-05-22T16:51:56.716Z,101251.63
2023-05-22T17:02:02.853Z,101252.91
2023-05-22T17:12:11.102Z,101253.69
2023-05-22T17:22:17.058Z,101255.59
2023-05-22T17:32:20.539Z,101252.84
2023-05-22T17:42:28.257Z,101251.69
2023-05-22T17:52:35.304Z,101251.22
2023-05-22T18:02:40.907Z,101252.72
2023-05-22T18:12:44.882Z,101254.28
2023-05-22T18:22:50.756Z,101253.84
2023-05-22T18:32:54.704Z,101249.78
2023-05-22T18:43:03.370Z,101249.69
2023-05-22T18:53:08.996Z,101251.00
2023-05-22T19:03:15.205Z,101253.38
2023-05-22T19:13:40.592Z,101252.94
2023-05-22T19:23:53.272Z,101247.78
2023-05-22T19:45:25.361Z,101235.88
2023-05-22T19:55:32.284Z,101239.41
2023-05-22T20:05:38.190Z,101235.53
2023-05-22T20:15:42.711Z,101237.44
2023-05-22T20:25:48.728Z,101239.81
2023-05-22T20:35:53.342Z,101242.25
2023-05-22T20:45:58.500Z,101245.50
2023-05-22T20:56:02.618Z,101246.69
2023-05-22T21:06:07.737Z,101245.28
2023-05-22T21:16:10.873Z,101248.31
2023-05-22T21:26:16.068Z,101247.03
2023-05-22T21:36:19.307Z,101250.44
2023-05-22T21:46:25.566Z,101252.97
2023-05-22T21:56:29.190Z,101252.97
2023-05-22T22:06:34.989Z,101254.47
2023-05-22T22:16:38.482Z,101256.50
2023-05-22T22:26:43.095Z,101258.66
2023-05-22T22:36:46.115Z,101257.75
2023-05-22T22:46:51.907Z,101259.38
2023-05-22T22:56:57.214Z,101258.91
2023-05-22T23:07:02.294Z,101260.78
2023-05-22T23:17:06.566Z,101262.75
2023-05-22T23:27:11.745Z,101262.25
2023-05-22T23:37:15.214Z,101262.91
2023-05-22T23:47:22.245Z,101263.44
2023-05-22T23:57:25.641Z,101264.50
